WetterOnline ( https://www.wetteronline.de )

Wetter aktuell Mönkeberg

Aktuelles Wetter: Kiel/Holtenau (27m)

6-stündlich | Neueste Meldungen
Ortszeit Temperatur Wetter
Di, 12.11. 7:00 4.7° C bedeckt
Di, 12.11. 1:00 3.5° C wolkig
Mo, 11.11. 19:00 2.8° C bedeckt
Mo, 11.11. 13:00 6.0° C leicht bewölkt
Mo, 11.11. 7:00 2.9° C bewölkt
Mo, 11.11. 1:00 4.7° C bewölkt
So, 10.11. 19:00 6.2° C Sprühregen
So, 10.11. 13:00 7.7° C wolkenlos
Ortszeit Temperatur Wetter
Di, 12.11. 9:00 5.4° C bedeckt
Di, 12.11. 8:50 5° C leichter Regen
Di, 12.11. 8:30 5.1° C bedeckt
Di, 12.11. 8:20 5.1° C bedeckt
Di, 12.11. 8:10 5.0° C bedeckt
Di, 12.11. 8:00 4.9° C bedeckt
Di, 12.11. 7:50 4.9° C bedeckt
Di, 12.11. 7:30 4.8° C bewölkt
Di, 12.11. 7:00 4.7° C bedeckt
Di, 12.11. 6:20 4° C bewölkt
Di, 12.11. 5:50 4° C bewölkt
Di, 12.11. 5:20 4° C bewölkt
Ortszeit Relative Feuchte Sichtweite
Di, 12.11. 7:00 83% 22 km
Di, 12.11. 1:00 85% 20 km
Mo, 11.11. 19:00 89% 15 km
Mo, 11.11. 13:00 71% 50 km
Mo, 11.11. 7:00 88% 10 km
Mo, 11.11. 1:00 87% 12 km
So, 10.11. 19:00 80% 15 km
So, 10.11. 13:00 69% 35 km
Ortszeit Relative Feuchte Sichtweite
Di, 12.11. 9:00 82% 25 km
Di, 12.11. 8:50 87% >10 km
Di, 12.11. 8:30 83% 26 km
Di, 12.11. 8:20 83% -
Di, 12.11. 8:10 83% -
Di, 12.11. 8:00 83% 23 km
Di, 12.11. 7:50 83% -
Di, 12.11. 7:30 83% 22 km
Di, 12.11. 7:00 83% 22 km
Di, 12.11. 6:20 87% >10 km
Di, 12.11. 5:50 87% >10 km
Di, 12.11. 5:20 87% >10 km
Ortszeit Niederschlagsmenge Niederschlagsart
Di, 12.11. 7:00 0.0 l/m2 in 12 Std. -
Di, 12.11. 1:00 0.0 l/m2 in 6 Std. -
Mo, 11.11. 19:00 0.0 l/m2 in 12 Std. -
Mo, 11.11. 13:00 0.0 l/m2 in 6 Std. -
Mo, 11.11. 7:00 0.1 l/m2 in 12 Std. -
Mo, 11.11. 1:00 0.1 l/m2 in 6 Std. Regen
So, 10.11. 19:00 0.1 l/m2 in 12 Std. Regen
So, 10.11. 13:00 0.1 l/m2 in 6 Std. Regen
Ortszeit Niederschlagsmenge Niederschlagsart
Di, 12.11. 9:00 0.0 l/m2 in 1 Std. -
Di, 12.11. 8:50 keine Meldung -
Di, 12.11. 8:30 0.0 l/m2 in 1 Std. -
Di, 12.11. 8:20 keine Meldung -
Di, 12.11. 8:10 keine Meldung -
Di, 12.11. 8:00 0.0 l/m2 in 1 Std. -
Di, 12.11. 7:50 keine Meldung -
Di, 12.11. 7:30 0.0 l/m2 in 1 Std. -
Di, 12.11. 7:00 0.0 l/m2 in 1 Std. -
Di, 12.11. 6:20 keine Meldung -
Di, 12.11. 5:50 keine Meldung -
Di, 12.11. 5:20 keine Meldung -
Ortszeit Stärke Spitze Richtung
km/h Bft. km/h Grad Sektor
Di, 12.11. 7:00 18 3 36 180° S
Di, 12.11. 1:00 18 3 40 170° S
Mo, 11.11. 19:00 22 4 43 160° S
Mo, 11.11. 13:00 14 3 36 190° S
Mo, 11.11. 7:00 14 3 25 180° S
Mo, 11.11. 1:00 15 3 31 210° SW
So, 10.11. 19:00 11 2 26 170° S
So, 10.11. 13:00 15 3 24 220° SW
Ortszeit Stärke Spitze Richtung
km/h Bft. km/h Grad Sektor
Di, 12.11. 9:00 20 4 31 170° S
Di, 12.11. 8:50 17 3 - 180° S
Di, 12.11. 8:30 19 3 31 170° S
Di, 12.11. 8:20 19 3 - 170° S
Di, 12.11. 8:10 18 3 - 180° S
Di, 12.11. 8:00 17 3 31 170° S
Di, 12.11. 7:50 17 3 - 170° S
Di, 12.11. 7:30 18 3 32 170° S
Di, 12.11. 7:00 18 3 32 180° S
Di, 12.11. 6:20 19 3 - 180° S
Di, 12.11. 5:50 15 3 - 180° S
Di, 12.11. 5:20 19 3 - 180° S
Ortszeit Untergrenze Bedeckung Gattung
total tief tief mittel hoch
Di, 12.11. 7:00 540 m 8/8 8/8 - - -
Di, 12.11. 1:00 690 m 7/8 1/8 - - -
Mo, 11.11. 19:00 240 m 8/8 8/8 - - -
Mo, 11.11. 13:00 6900 m 3/8 3/8 - - -
Mo, 11.11. 7:00 5400 m 7/8 7/8 - - -
Mo, 11.11. 1:00 1140 m 7/8 7/8 - - -
So, 10.11. 19:00 1110 m 8/8 8/8 - - -
So, 10.11. 13:00 - 0/8 0/8 - - -
Ortszeit Bedeckungsgrad in Achtel und Wolkenuntergrenze
Di, 12.11. 9:00 3(600m) 4(750m) 8(930m)
Di, 12.11. 8:50 5-7(660m)
Di, 12.11. 8:30 8(900m)
Di, 12.11. 8:20 8(900m)
Di, 12.11. 8:10 8(900m)
Di, 12.11. 8:00 1(630m) 8(870m)
Di, 12.11. 7:50 1(630m) 8(870m)
Di, 12.11. 7:30 7(660m) 8(810m)
Di, 12.11. 7:00 7(540m) 8(690m)
Di, 12.11. 6:20 5-7(510m)
Di, 12.11. 5:50 5-7(480m)
Di, 12.11. 5:20 5-7(450m)
Ortszeit Luftdruck NN (hPa) Tendenz (hPa in 3 Std.)
Di, 12.11. 7:00 1000 - 0,1
Di, 12.11. 1:00 1001 - 1,3
Mo, 11.11. 19:00 1004 - 1,1
Mo, 11.11. 13:00 1007 - 1,9
Mo, 11.11. 7:00 1010 - 1,7
Mo, 11.11. 1:00 1012 - 0,8
So, 10.11. 19:00 1013 + 0,4
So, 10.11. 13:00 1013 + 0,2
Ortszeit Luftdruck NN (hPa) Tendenz (hPa in 3 Std.)
Di, 12.11. 9:00 1000 + 0,5
Di, 12.11. 8:50 1000 keine Meldung
Di, 12.11. 8:30 1000 + 0,4
Di, 12.11. 8:20 1000 keine Meldung
Di, 12.11. 8:10 1000 keine Meldung
Di, 12.11. 8:00 1000 + 0,3
Di, 12.11. 7:50 1000 keine Meldung
Di, 12.11. 7:30 1000 0,0
Di, 12.11. 7:00 1000 - 0,1
Di, 12.11. 6:20 999 keine Meldung
Di, 12.11. 5:50 999 keine Meldung
Di, 12.11. 5:20 999 keine Meldung
Ortszeit Schneehöhe (cm)
Di, 12.11. 7:00 0
Di, 12.11. 1:00 0
Mo, 11.11. 19:00 0
Mo, 11.11. 13:00 0
Mo, 11.11. 7:00 0
Mo, 11.11. 1:00 0
So, 10.11. 19:00 0
So, 10.11. 13:00 0
Ortszeit Schneehöhe (cm)
Di, 12.11. 9:00 0
Di, 12.11. 8:50 -
Di, 12.11. 8:30 0
Di, 12.11. 8:20 0
Di, 12.11. 8:10 0
Di, 12.11. 8:00 0
Di, 12.11. 7:50 0
Di, 12.11. 7:30 0
Di, 12.11. 7:00 0
Di, 12.11. 6:20 -
Di, 12.11. 5:50 -
Di, 12.11. 5:20 -
Link zu dieser Seite / Seite empfehlen

Das Wetter in ...